Time;durP1;ratioP1;P1;durP2;ratioP2;P2;SDS_P1;SDS_P2;PMS_P1;PMS_P2;Temp;Humidity;BMP_temperature;BMP_pressure;BME280_temperature;BME280_humidity;BME280_pressure;Samples;Min_cycle;Max_cycle;Signal;HPM_P1;HPM_P2
2023/02/23 00:01:21;;;;;;;11.02;7.18;;;;;;;2.84;100.00;100516.50;4973344;28;20027;-96
2023/02/23 00:03:48;;;;;;;12.18;7.13;;;;;;;2.66;100.00;100501.63;4973288;28;20489;-96
2023/02/23 00:06:15;;;;;;;8.93;6.65;;;;;;;2.52;100.00;100474.78;4973186;28;20031;-96
2023/02/23 00:08:41;;;;;;;9.52;7.95;;;;;;;2.45;100.00;100473.25;4973492;28;20027;-95
2023/02/23 00:11:13;;;;;;;11.15;7.80;;;;;;;2.64;100.00;100499.16;4973240;28;20377;-96
2023/02/23 00:13:39;;;;;;;;;;;;;;;3.05;100.00;100520.25;4972719;28;20114;-95
2023/02/23 00:16:07;;;;;;;13.43;8.57;;;;;;;2.89;100.00;100479.00;4973167;28;20394;-95
2023/02/23 00:18:43;;;;;;;13.32;10.18;;;;;;;3.18;100.00;100478.25;4973498;28;20027;-95
2023/02/23 00:21:18;;;;;;;16.88;11.38;;;;;;;3.34;100.00;100471.03;4973927;28;20027;-95
2023/02/23 00:23:53;;;;;;;13.25;11.10;;;;;;;3.44;100.00;100481.81;4973198;28;20027;-95
2023/02/23 00:26:20;;;;;;;14.40;11.82;;;;;;;3.43;100.00;100480.97;4973134;28;20033;-96
2023/02/23 00:28:47;;;;;;;16.77;12.30;;;;;;;3.58;100.00;100494.19;4972929;28;20037;-96
2023/02/23 00:31:13;;;;;;;24.17;13.25;;;;;;;3.81;100.00;100496.94;4972700;28;20034;-95
2023/02/23 00:33:40;;;;;;;16.23;11.65;;;;;;;3.84;100.00;100491.72;4973017;28;20515;-96
2023/02/23 00:36:09;;;;;;;14.65;11.38;;;;;;;3.99;100.00;100500.66;4977394;28;20027;-96
2023/02/23 00:38:36;;;;;;;12.38;10.45;;;;;;;3.96;100.00;100495.66;4979581;28;20121;-96
2023/02/23 00:41:10;;;;;;;16.35;10.60;;;;;;;4.10;100.00;100492.69;4979391;28;20030;-96
2023/02/23 00:43:38;;;;;;;12.60;10.15;;;;;;;4.10;100.00;100487.59;4978649;28;20037;-96
2023/02/23 00:46:04;;;;;;;12.75;9.52;;;;;;;4.34;100.00;100523.47;4979359;28;20018;-96
2023/02/23 00:48:32;;;;;;;10.82;9.68;;;;;;;4.15;100.00;100511.28;4979449;28;20037;-96
2023/02/23 00:50:59;;;;;;;12.73;9.05;;;;;;;4.08;100.00;100495.28;4979353;28;20026;-96
2023/02/23 00:53:26;;;;;;;10.75;8.85;;;;;;;4.09;100.00;100503.78;4979531;28;20037;-96
2023/02/23 00:55:53;;;;;;;12.57;9.40;;;;;;;4.13;100.00;100499.44;4979148;28;20066;-96
2023/02/23 00:58:18;;;;;;;10.95;8.07;;;;;;;4.36;100.00;100526.84;4978953;28;20026;-95
2023/02/23 01:00:44;;;;;;;14.10;8.50;;;;;;;4.48;100.00;100544.34;4978137;28;20081;-96
2023/02/23 01:03:09;;;;;;;11.35;7.95;;;;;;;4.40;100.00;100536.09;4978976;28;20382;-95
2023/02/23 01:05:35;;;;;;;10.13;7.60;;;;;;;4.39;100.00;100521.63;4978877;28;20023;-94
2023/02/23 01:08:01;;;;;;;13.68;6.88;;;;;;;4.34;100.00;100526.91;4977637;28;20031;-93
2023/02/23 01:10:26;;;;;;;7.38;6.18;;;;;;;4.29;100.00;100526.19;4978894;28;20030;-95
2023/02/23 01:12:52;;;;;;;10.43;7.43;;;;;;;4.52;100.00;100538.28;4978339;28;20019;-94
2023/02/23 01:15:19;;;;;;;9.55;6.38;;;;;;;4.57;100.00;100538.97;4978717;28;20030;-96
2023/02/23 01:17:46;;;;;;;9.70;6.22;;;;;;;4.41;100.00;100517.31;4978880;28;20027;-95
2023/02/23 01:20:18;;;;;;;10.40;6.55;;;;;;;4.71;100.00;100552.16;4979278;28;20023;-95
2023/02/23 01:22:45;;;;;;;10.60;6.75;;;;;;;4.49;100.00;100546.03;4979087;28;20048;-96
2023/02/23 01:25:11;;;;;;;6.75;5.65;;;;;;;4.47;100.00;100528.19;4978923;28;20043;-95
2023/02/23 01:27:38;;;;;;;7.07;6.03;;;;;;;4.56;100.00;100537.31;4978950;28;20027;-95
2023/02/23 01:30:05;;;;;;;7.40;5.72;;;;;;;4.56;100.00;100560.31;4978333;28;20037;-95
2023/02/23 01:32:30;;;;;;;11.55;6.30;;;;;;;4.54;100.00;100549.28;4978828;28;20031;-94
2023/02/23 01:34:56;;;;;;;9.70;6.05;;;;;;;4.60;100.00;100556.75;4978891;28;20461;-95
2023/02/23 01:37:21;;;;;;;6.65;5.95;;;;;;;4.63;100.00;100554.13;4995188;28;20046;-93
2023/02/23 01:39:47;;;;;;;11.82;6.03;;;;;;;4.49;100.00;100551.97;4978698;28;20035;-95
2023/02/23 01:42:12;;;;;;;8.90;5.93;;;;;;;4.47;100.00;100542.69;4978653;28;20058;-95
2023/02/23 01:44:38;;;;;;;7.72;5.20;;;;;;;4.53;100.00;100573.16;4978691;28;20436;-95
2023/02/23 01:47:04;;;;;;;6.65;4.88;;;;;;;4.48;100.00;100559.69;4976259;28;20054;-95
2023/02/23 01:49:33;;;;;;;13.20;4.75;;;;;;;4.58;100.00;100576.41;4974732;28;20039;-94
2023/02/23 01:52:03;;;;;;;7.57;4.70;;;;;;;4.53;100.00;100568.03;4975577;28;20063;-95
2023/02/23 01:54:40;;;;;;;11.68;4.32;;;;;;;4.41;100.00;100558.19;4975876;28;20105;-94
2023/02/23 01:57:11;;;;;;;6.22;3.63;;;;;;;4.33;100.00;100560.16;4975663;28;20117;-95
2023/02/23 01:59:41;;;;;;;10.43;4.60;;;;;;;4.28;100.00;100562.84;4975084;28;20029;-95
2023/02/23 02:02:07;;;;;;;9.30;4.60;;;;;;;4.35;100.00;100563.50;4975449;28;20338;-95
2023/02/23 02:04:43;;;;;;;5.80;3.95;;;;;;;4.20;100.00;100545.19;4975508;28;20476;-95
2023/02/23 02:07:21;;;;;;;6.25;4.15;;;;;;;4.25;100.00;100553.53;4975394;28;20050;-95
2023/02/23 02:12:33;;;;;;;5.22;3.17;;;;;;;4.43;100.00;100587.09;4976754;28;20405;-94
2023/02/23 02:15:01;;;;;;;6.10;3.97;;;;;;;4.16;100.00;100552.97;4975426;28;20031;-95
2023/02/23 02:17:56;;;;;;;4.72;4.20;;;;;;;4.27;100.00;100577.34;4975258;28;20552;-95
2023/02/23 02:20:37;;;;;;;8.32;4.10;;;;;;;4.49;100.00;100592.03;4970085;28;20046;-96
2023/02/23 02:23:40;;;;;;;6.78;3.92;;;;;;;4.32;100.00;100594.22;4975012;28;20508;-95
2023/02/23 02:26:31;;;;;;;9.90;3.75;;;;;;;4.15;100.00;100572.59;4975105;28;20050;-95
2023/02/23 02:29:31;;;;;;;4.63;3.65;;;;;;;4.34;100.00;100595.03;4974846;28;20022;-95
2023/02/23 02:32:09;;;;;;;6.75;4.15;;;;;;;4.25;100.00;100589.31;4975165;28;20038;-94
2023/02/23 02:34:47;;;;;;;5.75;3.50;;;;;;;4.37;100.00;100597.53;4974732;28;20058;-95
2023/02/23 02:37:32;;;;;;;5.55;4.00;;;;;;;4.35;100.00;100599.28;4974797;28;20066;-95
2023/02/23 02:40:15;;;;;;;16.67;6.60;;;;;;;4.36;100.00;100595.81;4974641;28;20037;-96
2023/02/23 02:42:56;;;;;;;7.57;3.90;;;;;;;4.24;100.00;100568.91;4974827;28;20031;-95
2023/02/23 02:45:46;;;;;;;8.93;4.57;;;;;;;4.36;100.00;100590.72;4974884;28;20041;-95
2023/02/23 02:48:34;;;;;;;9.35;4.45;;;;;;;4.25;100.00;100576.53;4974458;28;20407;-95
2023/02/23 02:51:27;;;;;;;10.02;4.38;;;;;;;4.26;100.00;100600.38;4974539;28;20058;-95
2023/02/23 02:54:09;;;;;;;9.77;4.07;;;;;;;4.22;100.00;100584.31;4974391;28;20026;-95
2023/02/23 02:56:40;;;;;;;9.70;4.65;;;;;;;4.26;100.00;100600.38;4974680;28;20026;-95
2023/02/23 04:18:35;;;;;;;5.28;2.40;;;;;;;3.73;100.00;100575.47;4974400;28;20174;-94
2023/02/23 04:21:01;;;;;;;4.05;2.50;;;;;;;4.02;100.00;100623.19;4973068;28;20062;-94
2023/02/23 04:23:27;;;;;;;7.05;2.20;;;;;;;3.90;100.00;100613.28;4972931;28;20070;-93
2023/02/23 04:25:53;;;;;;;4.32;2.42;;;;;;;3.98;100.00;100623.31;4972956;28;20448;-95
2023/02/23 04:28:19;;;;;;;6.10;2.03;;;;;;;3.75;100.00;100601.75;4973097;28;20130;-93
2023/02/23 04:30:45;;;;;;;11.57;2.25;;;;;;;4.00;100.00;100629.19;4973116;28;20473;-93
2023/02/23 04:33:11;;;;;;;5.43;2.17;;;;;;;4.05;100.00;100635.03;4972809;28;20046;-93
2023/02/23 04:35:37;;;;;;;4.68;2.05;;;;;;;3.92;100.00;100616.63;4972799;28;20051;-95
2023/02/23 04:38:03;;;;;;;4.28;2.28;;;;;;;4.07;100.00;100640.91;4972649;28;20026;-93
2023/02/23 04:40:29;;;;;;;5.00;2.33;;;;;;;4.01;100.00;100635.97;4972992;28;20110;-93
2023/02/23 04:42:55;;;;;;;5.35;2.30;;;;;;;4.07;100.00;100635.81;4972810;28;20069;-93
2023/02/23 04:45:22;;;;;;;3.88;2.25;;;;;;;3.82;100.00;100610.94;4972607;28;20047;-94
2023/02/23 04:47:48;;;;;;;4.80;2.08;;;;;;;4.14;100.00;100641.59;4972809;28;20029;-94
2023/02/23 04:50:13;;;;;;;7.75;2.50;;;;;;;4.08;100.00;100658.75;4972756;28;20035;-93
2023/02/23 04:52:39;;;;;;;4.38;2.65;;;;;;;3.98;100.00;100646.28;4972699;28;20118;-94
2023/02/23 04:55:07;;;;;;;6.03;2.38;;;;;;;3.94;100.00;100644.69;4972830;28;20023;-96
2023/02/23 04:57:34;;;;;;;4.78;2.40;;;;;;;3.86;100.00;100640.63;4972520;28;20038;-94
2023/02/23 05:00:00;;;;;;;7.10;2.33;;;;;;;4.03;100.00;100660.59;4971823;28;20030;-93
2023/02/23 05:02:26;;;;;;;6.30;2.53;;;;;;;3.93;100.00;100650.69;4971141;28;20285;-94
2023/02/23 05:04:52;;;;;;;5.95;2.13;;;;;;;3.95;100.00;100642.09;4972717;28;20344;-93
2023/02/23 05:07:17;;;;;;;4.95;2.88;;;;;;;3.96;100.00;100638.66;4972599;28;20547;-93
2023/02/23 05:09:43;;;;;;;3.83;2.28;;;;;;;4.06;100.00;100664.78;4972568;28;20049;-95
2023/02/23 05:12:08;;;;;;;3.38;2.20;;;;;;;4.00;100.00;100672.59;4972733;28;20030;-94
2023/02/23 05:14:34;;;;;;;7.72;2.00;;;;;;;4.01;100.00;100669.19;4972236;28;20035;-94
2023/02/23 05:17:00;;;;;;;6.15;2.33;;;;;;;4.02;100.00;100665.75;4972477;28;20882;-93
2023/02/23 05:19:25;;;;;;;7.22;2.80;;;;;;;4.10;100.00;100676.59;4972340;28;20050;-94
2023/02/23 05:21:51;;;;;;;5.85;2.53;;;;;;;4.02;100.00;100663.19;4973814;28;20034;-94
2023/02/23 05:24:17;;;;;;;6.65;2.80;;;;;;;3.99;100.00;100688.81;4976003;28;20474;-93
2023/02/23 05:26:44;;;;;;;5.43;2.67;;;;;;;3.95;100.00;100697.44;4976080;28;20196;-94
2023/02/23 05:29:09;;;;;;;4.18;2.47;;;;;;;3.71;100.00;100679.31;4975978;28;20489;-95
2023/02/23 05:31:35;;;;;;;8.73;2.50;;;;;;;3.85;100.00;100674.69;4975224;28;20065;-94
2023/02/23 05:34:01;;;;;;;4.30;3.38;;;;;;;3.95;100.00;100707.63;4976241;28;20616;-94
2023/02/23 05:36:26;;;;;;;4.28;2.33;;;;;;;3.98;100.00;100707.59;4975686;28;20031;-94
2023/02/23 05:38:52;;;;;;;7.03;2.70;;;;;;;3.75;100.00;100680.91;4975996;28;20042;-93
2023/02/23 05:41:20;;;;;;;4.70;2.40;;;;;;;3.94;100.00;100721.28;4992159;28;20616;-93
2023/02/23 05:43:47;;;;;;;5.70;3.47;;;;;;;3.79;100.00;100710.59;4975531;28;20027;-94
2023/02/23 05:46:19;;;;;;;3.70;2.30;;;;;;;3.92;100.00;100707.72;4975874;28;20452;-94
2023/02/23 05:48:44;;;;;;;;;;;;;;;3.97;100.00;100722.03;4975963;28;20034;-94
2023/02/23 05:51:13;;;;;;;7.63;2.53;;;;;;;3.83;100.00;100717.31;4975588;28;19930;-93
2023/02/23 05:53:39;;;;;;;3.05;2.45;;;;;;;3.86;100.00;100696.78;4975571;28;20022;-94
2023/02/23 05:56:07;;;;;;;4.65;3.53;;;;;;;3.88;100.00;100695.91;4975380;28;20485;-93
2023/02/23 05:58:32;;;;;;;5.70;3.03;;;;;;;3.92;100.00;100702.63;4975486;28;20031;-94
2023/02/23 06:00:58;;;;;;;5.88;3.13;;;;;;;3.92;100.00;100717.94;4974692;28;20093;-94
2023/02/23 06:03:24;;;;;;;5.70;3.38;;;;;;;3.98;100.00;100722.91;4975324;28;20030;-94
2023/02/23 06:05:54;;;;;;;8.40;3.72;;;;;;;3.98;100.00;100728.84;4975394;28;20517;-95
2023/02/23 06:08:20;;;;;;;6.72;3.60;;;;;;;3.96;100.00;100730.59;4975451;28;20045;-94
2023/02/23 06:10:46;;;;;;;4.93;3.65;;;;;;;3.70;100.00;100708.25;4975116;28;20035;-93
2023/02/23 06:13:12;;;;;;;8.70;3.92;;;;;;;3.87;100.00;100725.72;4975236;28;20198;-94
2023/02/23 06:15:38;;;;;;;7.90;3.55;;;;;;;3.92;100.00;100743.47;4974907;28;20058;-94
2023/02/23 06:18:05;;;;;;;11.35;3.95;;;;;;;3.91;100.00;100739.25;4975001;28;20058;-93
2023/02/23 06:20:30;;;;;;;6.22;3.67;;;;;;;4.04;100.00;100723.56;4975182;28;20493;-93
2023/02/23 06:22:56;;;;;;;6.20;4.15;;;;;;;3.97;100.00;100731.44;4975170;28;20023;-95
2023/02/23 06:25:22;;;;;;;7.75;3.70;;;;;;;3.92;100.00;100730.72;4974906;28;20026;-94
2023/02/23 06:27:48;;;;;;;5.07;3.38;;;;;;;3.95;100.00;100722.97;4974765;28;20118;-95
2023/02/23 06:30:14;;;;;;;6.78;3.88;;;;;;;4.03;100.00;100736.41;4974250;28;20129;-95
2023/02/23 06:32:39;;;;;;;4.82;3.75;;;;;;;4.14;100.00;100752.25;4974385;28;20023;-96
2023/02/23 06:35:06;;;;;;;5.78;4.25;;;;;;;3.98;100.00;100741.63;4974775;28;20027;-93
2023/02/23 06:37:33;;;;;;;5.97;4.18;;;;;;;3.99;100.00;100729.69;4974355;28;20384;-94
2023/02/23 06:39:59;;;;;;;8.38;4.80;;;;;;;4.18;100.00;100755.59;4974779;28;20023;-94
2023/02/23 06:42:24;;;;;;;6.40;4.15;;;;;;;4.05;100.00;100724.44;4974898;28;20022;-94
2023/02/23 06:44:50;;;;;;;7.47;4.43;;;;;;;4.06;100.00;100749.06;4974535;28;20030;-94
2023/02/23 06:47:17;;;;;;;6.88;4.90;;;;;;;3.98;100.00;100749.28;4959095;28;20146;-93
2023/02/23 06:49:42;;;;;;;7.80;4.45;;;;;;;3.92;100.00;100738.38;4974600;28;20110;-94
2023/02/23 06:52:09;;;;;;;6.20;4.68;;;;;;;3.94;100.00;100711.09;4974709;28;20125;-94
2023/02/23 06:54:36;;;;;;;7.25;3.92;;;;;;;4.05;100.00;100752.53;4974413;28;20481;-94
2023/02/23 06:57:02;;;;;;;7.80;4.10;;;;;;;4.05;100.00;100758.47;4974916;28;20046;-95
2023/02/23 06:59:29;;;;;;;7.82;4.47;;;;;;;3.90;100.00;100745.22;4975051;28;20046;-96
2023/02/23 07:01:55;;;;;;;9.50;4.18;;;;;;;3.95;100.00;100743.38;4974513;28;20485;-96
2023/02/23 07:04:21;;;;;;;11.20;4.50;;;;;;;3.79;100.00;100720.81;4975404;28;20061;-96
2023/02/23 07:06:47;;;;;;;6.32;3.58;;;;;;;3.95;100.00;100756.16;4974841;28;20050;-93
2023/02/23 07:09:14;;;;;;;8.07;4.32;;;;;;;3.95;100.00;100757.03;4974304;28;20110;-94
2023/02/23 07:11:40;;;;;;;8.80;4.00;;;;;;;4.11;100.00;100757.47;4974229;28;20078;-94
2023/02/23 07:14:09;;;;;;;5.70;4.15;;;;;;;4.19;100.00;100780.25;4974126;28;20109;-95
2023/02/23 07:16:35;;;;;;;8.68;4.32;;;;;;;4.07;100.00;100768.63;4974263;28;20031;-94
2023/02/23 07:19:01;;;;;;;7.03;4.22;;;;;;;4.01;100.00;100773.91;4974130;28;20023;-94
2023/02/23 07:21:26;;;;;;;9.45;4.18;;;;;;;4.10;100.00;100798.34;4973981;28;20023;-94
2023/02/23 07:23:52;;;;;;;5.13;3.90;;;;;;;3.98;100.00;100771.44;4974076;28;20050;-94
2023/02/23 07:26:17;;;;;;;8.68;4.25;;;;;;;4.01;100.00;100784.94;4974303;28;20034;-94
2023/02/23 07:28:43;;;;;;;4.20;3.45;;;;;;;4.14;100.00;100805.06;4973965;28;20098;-93
2023/02/23 07:31:09;;;;;;;6.75;4.13;;;;;;;3.80;100.00;100790.56;4954859;28;20063;-94
2023/02/23 07:33:34;;;;;;;8.40;4.60;;;;;;;4.17;100.00;100812.66;4954216;29;20082;-93
2023/02/23 07:36:02;;;;;;;5.10;2.90;;;;;;;4.14;100.00;100813.56;4954422;29;20022;-93
2023/02/23 07:38:27;;;;;;;9.63;3.40;;;;;;;3.82;100.00;100783.72;4954236;29;20495;-94
2023/02/23 07:40:53;;;;;;;5.88;3.47;;;;;;;3.73;100.00;100802.66;4954298;29;20114;-95
2023/02/23 07:43:23;;;;;;;4.75;2.90;;;;;;;4.03;100.00;100825.78;4954526;29;20027;-94
2023/02/23 07:45:50;;;;;;;2.95;2.50;;;;;;;4.08;100.00;100817.13;4953488;28;20094;-95
2023/02/23 07:48:16;;;;;;;4.55;3.08;;;;;;;4.20;100.00;100818.53;4954484;29;20450;-93
2023/02/23 07:50:42;;;;;;;4.70;2.90;;;;;;;4.26;100.00;100810.72;4953974;29;20073;-94
2023/02/23 07:53:07;;;;;;;6.85;3.00;;;;;;;4.35;100.00;100806.25;4953975;29;20470;-95
2023/02/23 07:55:33;;;;;;;4.20;2.75;;;;;;;4.67;100.00;100805.41;4954047;29;20023;-94
2023/02/23 07:57:58;;;;;;;3.45;2.55;;;;;;;5.00;100.00;100813.00;4954008;29;20065;-94
2023/02/23 08:00:26;;;;;;;6.68;3.00;;;;;;;5.11;100.00;100813.56;4968577;28;20027;-95
2023/02/23 08:02:54;;;;;;;6.07;2.40;;;;;;;5.40;100.00;100827.22;4973157;28;20027;-95
2023/02/23 08:05:20;;;;;;;4.95;2.42;;;;;;;5.76;100.00;100833.78;4973193;28;20034;-94
2023/02/23 08:07:45;;;;;;;5.10;2.60;;;;;;;5.94;100.00;100819.56;4973555;28;20031;-94
2023/02/23 08:10:11;;;;;;;5.45;2.22;;;;;;;6.10;100.00;100821.66;4973337;28;20042;-94
2023/02/23 08:12:37;;;;;;;10.27;2.70;;;;;;;6.38;100.00;100819.84;4973125;28;20060;-94
2023/02/23 08:15:07;;;;;;;5.75;2.33;;;;;;;6.67;100.00;100838.53;4972628;28;20027;-94
2023/02/23 08:17:33;;;;;;;3.53;2.63;;;;;;;7.01;100.00;100839.91;4972981;28;20452;-94
2023/02/23 08:19:59;;;;;;;8.70;2.60;;;;;;;7.31;95.09;100847.34;4972863;28;20037;-94
2023/02/23 08:22:25;;;;;;;8.70;3.15;;;;;;;7.12;93.62;100829.22;4972223;28;20035;-94
2023/02/23 08:24:50;;;;;;;7.28;2.42;;;;;;;7.05;95.33;100815.81;4973162;28;20478;-94
2023/02/23 08:27:16;;;;;;;7.63;2.45;;;;;;;6.76;91.57;100848.47;4972785;28;20023;-94
2023/02/23 08:29:41;;;;;;;9.63;2.90;;;;;;;6.66;94.27;100813.78;4970539;28;20601;-93
2023/02/23 08:32:07;;;;;;;6.72;3.35;;;;;;;6.54;96.39;100838.13;4971152;28;20398;-94
2023/02/23 08:34:40;;;;;;;12.77;3.58;;;;;;;6.35;97.72;100839.63;4972716;28;20035;-95
2023/02/23 08:37:06;;;;;;;12.60;3.35;;;;;;;6.19;97.99;100840.13;4972673;28;20027;-94
2023/02/23 08:39:31;;;;;;;9.38;3.67;;;;;;;6.22;97.46;100841.75;4972737;28;20035;-94
2023/02/23 08:41:57;;;;;;;9.77;3.38;;;;;;;6.18;98.39;100869.19;4972603;28;20027;-94
2023/02/23 08:44:23;;;;;;;7.82;3.08;;;;;;;5.88;99.87;100855.63;4972658;28;20030;-94
2023/02/23 08:46:48;;;;;;;14.60;3.40;;;;;;;5.80;100.00;100867.81;4973138;28;20061;-93
2023/02/23 08:49:14;;;;;;;15.63;3.53;;;;;;;5.72;98.21;100880.84;4974787;28;20421;-94
2023/02/23 08:51:40;;;;;;;14.35;3.35;;;;;;;5.54;99.88;100851.53;4972449;28;20026;-93
2023/02/23 08:54:11;;;;;;;14.52;3.65;;;;;;;5.72;99.24;100885.97;4970716;28;20034;-94
2023/02/23 08:56:37;;;;;;;14.68;3.35;;;;;;;6.06;97.53;100896.94;4966592;28;20034;-95
2023/02/23 08:59:03;;;;;;;19.02;3.92;;;;;;;5.69;98.67;100875.84;4969536;28;20485;-94
2023/02/23 09:01:29;;;;;;;13.68;3.80;;;;;;;5.95;98.63;100869.94;4981161;28;20030;-94
2023/02/23 09:03:54;;;;;;;17.55;4.53;;;;;;;6.06;97.71;100889.25;4975598;28;20385;-94
2023/02/23 09:06:24;;;;;;;22.10;4.47;;;;;;;6.25;95.09;100905.75;4993807;28;20030;-96
2023/02/23 09:08:50;;;;;;;16.98;4.03;;;;;;;6.06;96.74;100891.81;4993840;28;20023;-94
2023/02/23 09:11:16;;;;;;;11.23;3.65;;;;;;;5.77;94.13;100883.28;4993880;28;20121;-95
2023/02/23 09:13:42;;;;;;;17.83;3.88;;;;;;;5.81;95.62;100892.56;4980590;28;20110;-95
2023/02/23 09:16:07;;;;;;;24.48;3.80;;;;;;;6.05;92.47;100882.44;4989659;28;20342;-94
2023/02/23 09:18:34;;;;;;;19.38;3.53;;;;;;;6.06;92.67;100900.34;4992640;28;20096;-95
2023/02/23 09:21:05;;;;;;;15.35;3.55;;;;;;;5.98;92.88;100897.19;4993763;28;20038;-95
2023/02/23 09:23:32;;;;;;;23.58;4.00;;;;;;;6.06;91.32;100914.88;4987303;28;20380;-94
2023/02/23 09:26:02;;;;;;;19.30;5.00;;;;;;;5.98;90.34;100918.53;4993716;28;20030;-95
2023/02/23 09:28:29;;;;;;;14.25;3.33;;;;;;;5.91;88.97;100904.19;4993672;28;20036;-94
2023/02/23 09:30:55;;;;;;;16.33;3.35;;;;;;;6.06;89.47;100907.19;4984904;28;20086;-96
2023/02/23 09:33:21;;;;;;;19.10;4.68;;;;;;;6.38;87.93;100909.56;4975013;28;20027;-94
2023/02/23 09:35:46;;;;;;;15.00;3.35;;;;;;;6.50;85.23;100904.94;4975065;28;20469;-95
2023/02/23 09:38:12;;;;;;;17.00;3.50;;;;;;;6.40;86.66;100884.72;4987944;28;20477;-96
2023/02/23 09:40:48;;;;;;;17.08;4.72;;;;;;;7.05;84.12;100923.59;4981663;28;20019;-95
2023/02/23 09:43:35;;;;;;;13.27;3.42;;;;;;;7.71;80.20;100924.59;4975198;28;20203;-95
2023/02/23 09:46:07;;;;;;;18.38;4.35;;;;;;;9.58;69.58;100925.47;4975754;28;20558;-95
2023/02/23 09:48:33;;;;;;;15.88;3.47;;;;;;;8.93;72.19;100894.00;4975147;28;20041;-96
2023/02/23 09:51:00;;;;;;;11.50;3.67;;;;;;;10.29;66.37;100897.25;4974082;28;20487;-96
2023/02/23 09:53:49;;;;;;;16.20;3.78;;;;;;;11.66;62.57;100923.78;4975771;28;20038;-95
2023/02/23 09:56:34;;;;;;;15.10;3.85;;;;;;;11.86;59.53;100920.94;4975486;28;20062;-96
2023/02/23 09:59:01;;;;;;;15.38;3.30;;;;;;;11.39;59.58;100900.22;4975738;28;20452;-95
2023/02/23 10:01:48;;;;;;;16.88;3.83;;;;;;;10.94;62.54;100915.47;4975943;28;20512;-95
2023/02/23 10:04:26;;;;;;;16.67;3.25;;;;;;;10.35;64.52;100950.28;4955875;29;20130;-96
2023/02/23 10:06:59;;;;;;;11.48;2.30;;;;;;;10.12;64.14;100936.72;4956254;29;20118;-95
2023/02/23 10:09:40;;;;;;;15.05;2.58;;;;;;;10.14;62.24;100955.50;4962426;28;20050;-94
2023/02/23 10:12:32;;;;;;;19.23;3.28;;;;;;;10.20;63.22;100954.41;4975231;28;20054;-96
2023/02/23 10:15:06;;;;;;;13.45;2.25;;;;;;;11.20;59.90;100926.22;4975126;28;20022;-95
2023/02/23 10:17:59;;;;;;;15.50;5.00;;;;;;;12.74;55.25;100975.56;4975116;28;20030;-95
2023/02/23 10:20:49;;;;;;;14.57;2.83;;;;;;;13.95;52.99;100989.03;4975267;28;20035;-96
2023/02/23 10:23:25;;;;;;;15.05;4.18;;;;;;;14.97;49.91;100958.19;4976221;28;20068;-95
2023/02/23 10:25:53;;;;;;;12.05;2.90;;;;;;;16.21;46.59;100966.03;4983791;28;20465;-95
2023/02/23 10:28:21;;;;;;;10.90;2.33;;;;;;;18.75;41.23;101031.66;4978357;28;20057;-95
2023/02/23 10:30:51;;;;;;;9.77;2.58;;;;;;;16.86;43.63;100954.31;4976557;28;20568;-95
2023/02/23 10:33:37;;;;;;;14.88;3.00;;;;;;;16.97;43.03;100956.09;4974614;28;20453;-96
2023/02/23 10:36:18;;;;;;;12.20;2.83;;;;;;;16.15;43.48;101027.22;4974482;28;20023;-95
2023/02/23 10:38:44;;;;;;;8.30;2.23;;;;;;;17.93;40.95;100997.38;4990050;28;20034;-94
2023/02/23 10:41:11;;;;;;;8.38;2.30;;;;;;;16.67;42.58;101013.00;4976094;28;20268;-96
2023/02/23 10:43:36;;;;;;;14.35;2.30;;;;;;;16.87;42.81;100969.00;4974648;28;20113;-96
2023/02/23 10:46:04;;;;;;;11.80;2.45;;;;;;;14.60;46.43;100959.78;4973519;28;20533;-95
2023/02/23 10:48:39;;;;;;;13.48;2.75;;;;;;;12.88;49.80;100972.19;4976258;28;20035;-96
2023/02/23 10:51:12;;;;;;;13.02;2.53;;;;;;;11.82;54.59;100968.56;4973295;28;20027;-95
2023/02/23 10:53:38;;;;;;;12.80;3.05;;;;;;;11.52;55.14;100961.53;4974077;28;20052;-95
2023/02/23 10:56:12;;;;;;;13.20;3.72;;;;;;;10.91;58.33;100962.97;4972253;28;20082;-96
2023/02/23 10:58:50;;;;;;;21.77;3.30;;;;;;;9.68;61.04;100988.59;4986068;28;20042;-96
2023/02/23 11:01:43;;;;;;;14.35;2.58;;;;;;;9.59;60.61;100989.00;4971197;28;20037;-96
2023/02/23 11:04:20;;;;;;;14.73;3.28;;;;;;;8.51;62.90;100967.81;4972567;28;20030;-96
2023/02/23 11:06:51;;;;;;;13.43;2.70;;;;;;;8.49;66.32;100977.31;4972177;28;20035;-96
2023/02/23 11:09:36;;;;;;;17.20;3.47;;;;;;;7.90;65.17;100954.72;4972575;28;20085;-96
2023/02/23 11:12:22;;;;;;;12.30;2.05;;;;;;;8.06;67.85;100970.41;4970946;28;20348;-94
2023/02/23 11:14:50;;;;;;;19.45;3.45;;;;;;;8.00;67.18;100970.63;4971869;28;20117;-96
2023/02/23 11:17:42;;;;;;;16.25;3.50;;;;;;;8.14;67.34;100994.06;4972963;28;20038;-96
2023/02/23 11:20:21;;;;;;;15.85;2.70;;;;;;;8.01;68.87;100993.72;4964983;28;20413;-94
2023/02/23 11:22:47;;;;;;;15.32;3.35;;;;;;;7.74;68.99;100981.91;4972817;28;20069;-96
2023/02/23 11:25:31;;;;;;;14.43;3.30;;;;;;;7.74;67.35;100956.22;4970300;28;20118;-95
2023/02/23 11:27:57;;;;;;;11.52;2.50;;;;;;;7.45;67.97;100968.38;4968127;28;20117;-95
2023/02/23 11:30:36;;;;;;;9.88;2.35;;;;;;;7.44;68.56;100959.03;4968748;28;20042;-95
2023/02/23 11:33:09;;;;;;;12.80;2.35;;;;;;;7.77;70.58;100974.06;4984123;28;20031;-95
2023/02/23 11:35:36;;;;;;;13.48;4.00;;;;;;;7.90;68.75;100980.41;4972470;28;20496;-95
2023/02/23 11:38:20;;;;;;;20.92;3.55;;;;;;;8.22;67.45;100996.34;4972814;28;20489;-96
2023/02/23 11:41:02;;;;;;;12.30;2.60;;;;;;;8.22;65.98;100965.50;4972785;28;20094;-96
2023/02/23 11:43:28;;;;;;;;;;;;;;;8.26;67.84;100998.75;4973873;28;20121;-96
2023/02/23 11:45:57;;;;;;;16.40;2.17;;;;;;;8.18;66.41;100998.22;4972939;28;19956;-96
2023/02/23 11:48:29;;;;;;;12.20;2.33;;;;;;;8.64;66.01;101003.31;4972525;28;20121;-94
2023/02/23 11:50:55;;;;;;;12.70;2.63;;;;;;;8.47;66.54;100994.53;4978840;28;20030;-96
2023/02/23 11:53:35;;;;;;;12.70;3.03;;;;;;;7.90;66.12;100981.28;4973637;28;20129;-96
2023/02/23 11:56:09;;;;;;;14.32;2.97;;;;;;;8.11;65.34;100994.19;4973287;28;20026;-96
2023/02/23 11:58:42;;;;;;;7.72;1.58;;;;;;;8.13;66.07;101002.69;4971816;28;20493;-95
2023/02/23 12:23:37;;;;;;;11.05;2.20;;;;;;;9.50;61.44;100979.09;5986041;22;20054;-96
2023/02/23 12:26:32;;;;;;;12.35;2.42;;;;;;;11.01;56.01;100939.25;4925305;28;20071;-96
2023/02/23 12:29:17;;;;;;;13.23;1.77;;;;;;;13.14;53.10;100947.28;4984030;28;20035;-95
2023/02/23 12:36:52;;;;;;;8.65;2.22;;;;;;;13.01;49.59;100971.34;4985771;28;20038;-96
2023/02/23 12:39:29;;;;;;;14.13;2.53;;;;;;;12.82;52.09;100968.19;4984387;28;20030;-96
2023/02/23 12:44:46;;;;;;;18.98;2.92;;;;;;;11.52;51.35;100938.28;4976050;22;20055;-96
2023/02/23 12:47:43;;;;;;;8.82;2.75;;;;;;;10.84;54.84;100971.94;4952421;29;20031;-94
2023/02/23 12:50:32;;;;;;;9.18;2.08;;;;;;;10.60;54.98;100952.50;4951380;29;20042;-96
2023/02/23 12:53:35;;;;;;;10.23;2.28;;;;;;;10.02;57.66;100976.72;4944569;29;20050;-95
2023/02/23 12:56:03;;;;;;;16.05;2.45;;;;;;;10.22;57.27;100975.81;4967373;28;20024;-95
2023/02/23 12:58:46;;;;;;;14.40;2.92;;;;;;;9.77;59.75;100952.06;4952427;29;20117;-95
2023/02/23 13:01:27;;;;;;;19.98;3.40;;;;;;;9.25;61.50;100957.00;4952336;29;20049;-96
2023/02/23 13:04:29;;;;;;;18.52;3.47;;;;;;;9.33;60.85;100988.38;4952858;29;20038;-96
2023/02/23 13:07:19;;;;;;;12.43;2.80;;;;;;;8.91;61.82;100991.91;4951552;29;20055;-96
2023/02/23 13:10:04;;;;;;;11.88;2.35;;;;;;;8.90;62.89;100985.09;4952989;29;20289;-96
2023/02/23 13:23:46;;;;;;;16.55;3.13;;;;;;;8.24;66.45;100964.56;5157842;22;20615;-96
2023/02/23 13:26:54;;;;;;;14.02;2.65;;;;;;;8.19;65.96;100983.63;4969450;28;20027;-96
2023/02/23 13:29:37;;;;;;;14.65;3.97;;;;;;;7.63;65.76;100975.44;4968208;28;20035;-95
2023/02/23 13:32:09;;;;;;;13.55;2.60;;;;;;;7.45;66.35;100942.69;4969820;28;20401;-96
2023/02/23 13:34:41;;;;;;;15.90;2.60;;;;;;;7.95;66.98;100957.97;5017868;22;20142;-95
2023/02/23 13:37:10;;;;;;;15.57;3.65;;;;;;;8.03;67.45;100963.66;4991963;28;20046;-95
2023/02/23 13:40:00;;;;;;;12.23;2.58;;;;;;;8.26;67.18;100974.78;4987803;28;20115;-96
2023/02/23 13:42:44;;;;;;;12.18;2.53;;;;;;;8.23;65.53;100944.03;4986689;28;20377;-96
2023/02/23 13:45:50;;;;;;;10.30;2.10;;;;;;;8.20;64.36;100968.16;4975743;28;20042;-96